Time;durP1;ratioP1;P1;durP2;ratioP2;P2;SDS_P1;SDS_P2;PMS_P1;PMS_P2;Temp;Humidity;BMP_temperature;BMP_pressure;BME280_temperature;BME280_humidity;BME280_pressure;Samples;Min_cycle;Max_cycle;Signal;HPM_P1;HPM_P2
2022/01/25 00:24:28;;;;;;;67.00;41.10;;;3.80;99.90;;;;;;4949395;28;20591;-46
2022/01/25 00:27:07;;;;;;;71.53;41.85;;;3.80;99.90;;;;;;4949757;28;20051;-47
2022/01/25 00:32:19;;;;;;;69.18;42.10;;;3.80;99.90;;;;;;4959504;28;20046;-46
2022/01/25 00:34:45;;;;;;;72.28;43.78;;;3.80;99.90;;;;;;4942965;28;20411;-46
2022/01/25 00:37:12;;;;;;;72.70;44.40;;;3.80;99.90;;;;;;4963387;28;20070;-46
2022/01/25 00:39:38;;;;;;;77.25;44.22;;;3.80;99.90;;;;;;4948916;28;20138;-46
2022/01/25 00:42:06;;;;;;;68.65;41.83;;;3.80;99.90;;;;;;4948966;28;20059;-49
2022/01/25 00:44:37;;;;;;;74.00;43.95;;;3.80;99.90;;;;;;4960437;28;20063;-55
2022/01/25 00:47:05;;;;;;;72.57;45.45;;;3.80;99.90;;;;;;4959472;28;20104;-49
2022/01/25 00:49:35;;;;;;;74.75;44.40;;;3.70;99.90;;;;;;4951088;28;20243;-47
2022/01/25 00:52:17;;;;;;;72.03;44.40;;;3.80;99.90;;;;;;5002469;28;20081;-47
2022/01/25 00:54:43;;;;;;;69.70;44.25;;;3.80;99.90;;;;;;4984798;28;20093;-47
2022/01/25 00:57:09;;;;;;;73.22;44.10;;;3.70;99.90;;;;;;4993445;28;20054;-46
2022/01/25 00:59:35;;;;;;;74.50;44.90;;;3.70;99.90;;;;;;4995215;28;20056;-46
2022/01/25 01:02:06;;;;;;;71.20;43.15;;;3.70;99.90;;;;;;4998975;28;20487;-47
2022/01/25 01:04:33;;;;;;;72.88;43.78;;;3.70;99.90;;;;;;4985041;28;20086;-49
2022/01/25 01:07:02;;;;;;;68.30;42.92;;;3.70;99.90;;;;;;4994715;28;20061;-47
2022/01/25 01:09:31;;;;;;;69.32;42.90;;;3.70;99.90;;;;;;4991850;28;20069;-46
2022/01/25 01:12:03;;;;;;;71.70;43.33;;;3.70;99.90;;;;;;5003840;28;20140;-47
2022/01/25 01:33:51;;;;;;;70.65;43.53;;;3.70;99.90;;;;;;4962184;28;20090;-50
2022/01/25 01:44:05;;;;;;;69.53;44.38;;;3.70;99.90;;;;;;4962311;28;20090;-47
2022/01/25 01:46:40;;;;;;;70.32;44.10;;;3.70;99.90;;;;;;4947241;28;20108;-46
2022/01/25 01:49:07;;;;;;;74.10;46.08;;;3.70;99.90;;;;;;4964644;28;20081;-46
2022/01/25 01:51:38;;;;;;;73.65;42.75;;;3.70;99.90;;;;;;4947193;28;20935;-47
2022/01/25 01:54:11;;;;;;;68.82;42.28;;;3.70;99.90;;;;;;4961793;28;20061;-53
2022/01/25 01:56:38;;;;;;;69.38;41.53;;;3.70;99.90;;;;;;4952693;28;20066;-47
2022/01/25 01:59:06;;;;;;;71.28;44.45;;;3.70;99.90;;;;;;4978217;28;20396;-46
2022/01/25 02:01:32;;;;;;;67.25;42.80;;;3.70;99.90;;;;;;5002565;28;20103;-47
2022/01/25 02:04:01;;;;;;;73.13;42.90;;;3.70;99.90;;;;;;4985023;28;20046;-46
2022/01/25 02:06:27;;;;;;;71.70;43.05;;;3.70;99.90;;;;;;5000794;28;20042;-47
2022/01/25 02:08:53;;;;;;;69.70;42.38;;;3.70;99.90;;;;;;4998325;28;20065;-46
2022/01/25 02:11:20;;;;;;;74.95;44.83;;;3.70;99.90;;;;;;5002055;28;20042;-48
2022/01/25 02:13:47;;;;;;;74.57;43.00;;;3.70;99.90;;;;;;5005919;28;20152;-46
2022/01/25 02:16:32;;;;;;;72.30;42.50;;;3.70;99.90;;;;;;5002763;28;20045;-46
2022/01/25 02:24:33;;;;;;;71.28;43.22;;;3.70;99.90;;;;;;4995943;28;20061;-46
2022/01/25 02:27:00;;;;;;;72.65;42.67;;;3.70;99.90;;;;;;5000863;28;20050;-47
2022/01/25 02:29:26;;;;;;;70.50;43.78;;;3.70;99.90;;;;;;5002293;28;20064;-48
2022/01/25 02:31:55;;;;;;;71.53;43.08;;;3.70;99.90;;;;;;5003072;28;20045;-46
2022/01/25 02:34:22;;;;;;;72.22;44.17;;;3.70;99.90;;;;;;5001173;28;20046;-47
2022/01/25 02:37:10;;;;;;;70.75;42.55;;;3.70;99.90;;;;;;5001577;28;20100;-47
2022/01/25 02:39:42;;;;;;;69.35;42.40;;;3.70;99.90;;;;;;4996840;28;20532;-47
2022/01/25 02:42:09;;;;;;;68.22;41.53;;;3.70;99.90;;;;;;5001232;28;20049;-47
2022/01/25 02:44:36;;;;;;;77.20;42.35;;;3.70;99.90;;;;;;5000732;28;20561;-46
2022/01/25 02:49:31;;;;;;;73.93;44.05;;;3.70;99.90;;;;;;4998396;28;20054;-47
2022/01/25 02:52:00;;;;;;;68.10;43.10;;;3.70;99.90;;;;;;5002975;28;20061;-46
2022/01/25 02:54:26;;;;;;;67.07;42.35;;;3.70;99.90;;;;;;5002274;28;20535;-46
2022/01/25 02:56:53;;;;;;;73.05;42.38;;;3.70;99.90;;;;;;5004756;28;20052;-46
2022/01/25 02:59:20;;;;;;;73.07;43.08;;;3.70;99.90;;;;;;5000328;28;20050;-48
2022/01/25 03:01:47;;;;;;;71.55;44.33;;;3.70;99.90;;;;;;5000960;28;21082;-47
2022/01/25 03:04:15;;;;;;;68.53;42.88;;;3.70;99.90;;;;;;5001830;28;20100;-49
2022/01/25 03:06:43;;;;;;;69.95;44.60;;;3.70;99.90;;;;;;4992391;28;20145;-50
2022/01/25 03:09:09;;;;;;;71.20;41.78;;;3.70;99.90;;;;;;5002545;28;20085;-46
2022/01/25 03:11:35;;;;;;;73.10;43.63;;;3.70;99.90;;;;;;5001412;28;20068;-46
2022/01/25 03:14:06;;;;;;;68.70;44.22;;;3.70;99.90;;;;;;4999543;28;20058;-47
2022/01/25 03:16:44;;;;;;;70.22;42.33;;;3.70;99.90;;;;;;5002287;28;20065;-46
2022/01/25 03:22:33;;;;;;;70.65;43.00;;;3.70;99.90;;;;;;5001046;28;20046;-46
2022/01/25 03:24:59;;;;;;;70.22;42.53;;;3.70;99.90;;;;;;4991646;28;20058;-46
2022/01/25 03:27:25;;;;;;;75.65;44.10;;;3.70;99.90;;;;;;5002203;28;20041;-46
2022/01/25 03:29:52;;;;;;;69.32;43.05;;;3.70;99.90;;;;;;5000265;28;20496;-47
2022/01/25 03:32:18;;;;;;;68.97;41.47;;;3.70;99.90;;;;;;5002547;28;20049;-47
2022/01/25 03:34:43;;;;;;;72.53;45.05;;;3.70;99.90;;;;;;5001264;28;20050;-49
2022/01/25 03:37:09;;;;;;;73.88;44.28;;;3.70;99.90;;;;;;4993901;28;20396;-49
2022/01/25 03:39:35;;;;;;;77.70;45.67;;;3.60;99.90;;;;;;5000845;28;20471;-47
2022/01/25 03:42:06;;;;;;;72.32;42.40;;;3.70;99.90;;;;;;5001410;28;20052;-46
2022/01/25 03:44:32;;;;;;;74.47;44.40;;;3.60;99.90;;;;;;4995182;28;20058;-47
2022/01/25 03:47:04;;;;;;;71.07;43.00;;;3.70;99.90;;;;;;5000509;28;20089;-46
2022/01/25 03:52:16;;;;;;;74.75;44.88;;;3.70;99.90;;;;;;5003329;28;20161;-47
2022/01/25 03:54:41;;;;;;;75.10;43.97;;;3.60;99.90;;;;;;5000268;28;20115;-46
2022/01/25 03:57:07;;;;;;;72.75;43.95;;;3.60;99.90;;;;;;4998192;28;20054;-46
2022/01/25 03:59:38;;;;;;;74.70;44.72;;;3.60;99.90;;;;;;5002508;28;20046;-49
2022/01/25 04:02:04;;;;;;;79.22;46.83;;;3.70;99.90;;;;;;5002518;28;20072;-48
2022/01/25 04:04:31;;;;;;;76.85;45.03;;;3.70;99.90;;;;;;5006186;28;20045;-46
2022/01/25 04:06:57;;;;;;;74.53;44.00;;;3.60;99.90;;;;;;4991394;28;20098;-50
2022/01/25 04:09:23;;;;;;;74.40;45.72;;;3.70;99.90;;;;;;5002391;28;20317;-48
2022/01/25 04:11:49;;;;;;;70.35;42.05;;;3.70;99.90;;;;;;4999580;28;20488;-51
2022/01/25 04:14:15;;;;;;;73.05;44.53;;;3.70;99.90;;;;;;5002014;28;20574;-48
2022/01/25 04:17:03;;;;;;;77.57;44.95;;;3.70;99.90;;;;;;4998992;28;20050;-46
2022/01/25 04:27:29;;;;;;;72.55;44.65;;;3.70;99.90;;;;;;4996049;28;20132;-47
2022/01/25 04:29:55;;;;;;;75.40;45.45;;;3.70;99.90;;;;;;5001789;28;20042;-47
2022/01/25 04:32:43;;;;;;;77.57;46.90;;;3.70;99.90;;;;;;5002134;28;20328;-47
2022/01/25 04:49:29;;;;;;;75.32;47.92;;;3.60;99.90;;;;;;5000941;28;20054;-47
2022/01/25 04:59:38;;;;;;;75.90;45.78;;;3.60;99.90;;;;;;5004391;28;20056;-47
2022/01/25 05:02:11;;;;;;;72.75;44.63;;;3.60;99.90;;;;;;5000214;28;20057;-46
2022/01/25 05:04:45;;;;;;;78.88;46.30;;;3.60;99.90;;;;;;4981816;28;20131;-46
2022/01/25 05:09:50;;;;;;;76.25;46.45;;;3.60;99.90;;;;;;5005152;28;20093;-47
2022/01/25 05:12:16;;;;;;;75.22;45.28;;;3.60;99.90;;;;;;5002626;28;20058;-48
2022/01/25 05:14:59;;;;;;;80.00;46.13;;;3.60;99.90;;;;;;5006328;28;20078;-48
2022/01/25 05:17:34;;;;;;;72.40;43.97;;;3.60;99.90;;;;;;5000207;28;20097;-46
2022/01/25 05:22:45;;;;;;;75.00;44.97;;;3.60;99.90;;;;;;4997001;28;20089;-46
2022/01/25 05:25:10;;;;;;;72.72;44.20;;;3.60;99.90;;;;;;4997976;28;20120;-50
2022/01/25 05:27:36;;;;;;;78.88;45.63;;;3.60;99.90;;;;;;5003436;28;20049;-47
2022/01/25 05:30:03;;;;;;;76.13;46.20;;;3.60;99.90;;;;;;5003670;28;20874;-47
2022/01/25 05:32:32;;;;;;;74.20;44.67;;;3.60;99.90;;;;;;5004295;28;20042;-46
2022/01/25 05:34:58;;;;;;;74.75;45.03;;;3.60;99.90;;;;;;5004096;28;20046;-46
2022/01/25 05:37:24;;;;;;;84.47;47.38;;;3.60;99.90;;;;;;5003347;28;20065;-47
2022/01/25 05:39:51;;;;;;;79.32;45.25;;;3.60;99.90;;;;;;5003495;28;20054;-48
2022/01/25 05:44:54;;;;;;;78.20;45.67;;;3.60;99.90;;;;;;5003146;28;20096;-46
2022/01/25 05:47:28;;;;;;;74.53;44.97;;;3.60;99.90;;;;;;5002280;28;20131;-47
2022/01/25 05:49:55;;;;;;;74.78;44.80;;;3.60;99.90;;;;;;5003634;28;20127;-47
2022/01/25 05:52:21;;;;;;;72.88;44.35;;;3.60;99.90;;;;;;5001364;28;20057;-46
2022/01/25 05:54:47;;;;;;;75.55;45.58;;;3.60;99.90;;;;;;4984198;28;20061;-46
2022/01/25 05:57:12;;;;;;;73.22;44.03;;;3.60;99.90;;;;;;5003909;28;20056;-47
2022/01/25 05:59:38;;;;;;;76.20;44.97;;;3.60;99.90;;;;;;5004112;28;20044;-48
2022/01/25 06:02:05;;;;;;;79.15;46.80;;;3.60;99.90;;;;;;5001802;28;20054;-48
2022/01/25 06:04:31;;;;;;;77.82;46.05;;;3.60;99.90;;;;;;5007387;28;20045;-46
2022/01/25 06:06:56;;;;;;;77.60;45.90;;;3.60;99.90;;;;;;4999757;28;20134;-48
2022/01/25 06:09:24;;;;;;;75.28;45.20;;;3.60;99.90;;;;;;5000446;28;20137;-46
2022/01/25 06:11:52;;;;;;;78.20;46.05;;;3.60;99.90;;;;;;5000997;28;20061;-49
2022/01/25 06:14:18;;;;;;;76.22;45.00;;;3.60;99.90;;;;;;5005589;28;20250;-46
2022/01/25 06:16:44;;;;;;;76.35;46.05;;;3.60;99.90;;;;;;5003596;28;20084;-46
2022/01/25 06:19:09;;;;;;;79.63;46.53;;;3.60;99.90;;;;;;5003184;28;20172;-46
2022/01/25 06:21:35;;;;;;;75.80;46.08;;;3.60;99.90;;;;;;5004042;28;20041;-47
2022/01/25 06:24:01;;;;;;;75.75;45.15;;;3.60;99.90;;;;;;5001339;28;20938;-47
2022/01/25 06:26:27;;;;;;;79.07;45.33;;;3.60;99.90;;;;;;5001351;28;20049;-49
2022/01/25 06:28:53;;;;;;;73.20;44.50;;;3.60;99.90;;;;;;5002984;28;20053;-50
2022/01/25 06:31:19;;;;;;;73.78;44.10;;;3.60;99.90;;;;;;5003736;28;20049;-49
2022/01/25 06:33:46;;;;;;;70.93;44.08;;;3.60;99.90;;;;;;5000225;28;20559;-49
2022/01/25 06:36:12;;;;;;;77.18;46.30;;;3.60;99.90;;;;;;5001166;28;20460;-46
2022/01/25 06:38:38;;;;;;;74.78;44.67;;;3.60;99.90;;;;;;4993052;28;20053;-46
2022/01/25 06:41:04;;;;;;;80.72;45.85;;;3.60;99.90;;;;;;5003190;28;20050;-46
2022/01/25 06:43:30;;;;;;;71.70;43.33;;;3.60;99.90;;;;;;4992781;28;20395;-47
2022/01/25 06:46:00;;;;;;;77.15;44.72;;;3.60;99.90;;;;;;5000379;28;20511;-48
2022/01/25 06:48:26;;;;;;;76.68;45.63;;;3.60;99.90;;;;;;5002357;28;20496;-46
2022/01/25 06:50:52;;;;;;;78.50;45.30;;;3.60;99.90;;;;;;5001297;28;20419;-48
2022/01/25 06:53:18;;;;;;;76.40;46.28;;;3.60;99.90;;;;;;5001364;28;20123;-46
2022/01/25 06:55:44;;;;;;;77.68;45.33;;;3.60;99.90;;;;;;5009260;28;20050;-46
2022/01/25 06:58:10;;;;;;;75.93;45.63;;;3.60;99.90;;;;;;5001385;28;20054;-48
2022/01/25 07:00:36;;;;;;;76.75;46.95;;;3.60;99.90;;;;;;5000340;28;20064;-46
2022/01/25 07:03:03;;;;;;;76.35;45.90;;;3.60;99.90;;;;;;4991407;28;20564;-47
2022/01/25 07:05:29;;;;;;;76.32;43.40;;;3.60;99.90;;;;;;5004195;28;20570;-46
2022/01/25 07:07:55;;;;;;;74.57;44.28;;;3.60;99.90;;;;;;4991702;28;20436;-47
2022/01/25 07:10:21;;;;;;;81.75;46.97;;;3.60;99.90;;;;;;4992814;28;20120;-47
2022/01/25 07:12:47;;;;;;;79.47;44.63;;;3.60;99.90;;;;;;5002234;28;20460;-49
2022/01/25 07:15:14;;;;;;;73.97;45.45;;;3.60;99.90;;;;;;5001987;28;20053;-46
2022/01/25 07:17:40;;;;;;;75.65;45.63;;;3.50;99.90;;;;;;4993944;28;20053;-46
2022/01/25 07:20:08;;;;;;;75.65;44.08;;;3.50;99.90;;;;;;4998024;28;20052;-47
2022/01/25 07:22:35;;;;;;;79.65;45.28;;;3.60;99.90;;;;;;5006055;28;20049;-48
2022/01/25 07:25:03;;;;;;;73.43;43.05;;;3.60;99.90;;;;;;4996431;28;20108;-47
2022/01/25 07:27:29;;;;;;;78.00;46.00;;;3.50;99.90;;;;;;5002010;28;20042;-47
2022/01/25 07:29:54;;;;;;;74.70;43.53;;;3.50;99.90;;;;;;5005132;28;20049;-47
2022/01/25 07:32:20;;;;;;;78.93;45.58;;;3.50;99.90;;;;;;5002764;28;20045;-46
2022/01/25 07:34:46;;;;;;;78.32;45.47;;;3.50;99.90;;;;;;5001448;28;20049;-47
2022/01/25 07:37:12;;;;;;;76.70;44.28;;;3.50;99.90;;;;;;5005284;28;20049;-49
2022/01/25 07:39:38;;;;;;;74.18;44.88;;;3.50;99.90;;;;;;5002142;28;20870;-46
2022/01/25 07:42:04;;;;;;;75.28;44.92;;;3.50;99.90;;;;;;5003263;28;20065;-48
2022/01/25 07:44:35;;;;;;;76.88;46.05;;;3.50;99.90;;;;;;5001907;28;20170;-47
2022/01/25 07:47:01;;;;;;;78.18;44.97;;;3.50;99.90;;;;;;5002437;28;20081;-46
2022/01/25 07:49:31;;;;;;;81.47;46.30;;;3.50;99.90;;;;;;5001007;28;20107;-46
2022/01/25 07:51:57;;;;;;;75.45;44.28;;;3.50;99.90;;;;;;5002400;28;20054;-46
2022/01/25 07:54:24;;;;;;;72.65;42.63;;;3.50;99.90;;;;;;4998448;28;20424;-46
2022/01/25 07:56:50;;;;;;;79.00;46.03;;;3.50;99.90;;;;;;5007234;28;20137;-46
2022/01/25 07:59:16;;;;;;;78.40;44.80;;;3.50;99.90;;;;;;5000115;28;20045;-48
2022/01/25 08:01:42;;;;;;;79.60;46.25;;;3.50;99.90;;;;;;5002288;28;20598;-46
2022/01/25 08:04:09;;;;;;;83.05;46.67;;;3.50;99.90;;;;;;5001572;28;20085;-46
2022/01/25 08:06:37;;;;;;;82.78;47.25;;;3.50;99.90;;;;;;5005495;28;20049;-47
2022/01/25 08:09:07;;;;;;;79.90;46.97;;;3.50;99.90;;;;;;4996866;28;20425;-46
2022/01/25 08:11:33;;;;;;;78.88;45.88;;;3.50;99.90;;;;;;4994102;28;20192;-46
2022/01/25 08:14:17;;;;;;;79.55;44.03;;;3.50;99.90;;;;;;4999537;28;20187;-46
2022/01/25 08:16:52;;;;;;;74.53;43.42;;;3.50;99.90;;;;;;5001170;28;20058;-49
2022/01/25 08:19:19;;;;;;;77.38;42.95;;;3.60;99.90;;;;;;4993135;28;20049;-47
2022/01/25 08:21:46;;;;;;;77.90;45.67;;;3.60;99.90;;;;;;4999755;28;20419;-47
2022/01/25 08:24:15;;;;;;;76.53;43.80;;;3.60;99.90;;;;;;4997364;28;20113;-47
2022/01/25 08:26:42;;;;;;;80.45;45.67;;;3.60;99.90;;;;;;5000842;28;20053;-46
2022/01/25 08:29:08;;;;;;;78.15;44.63;;;3.60;99.90;;;;;;5002723;28;20057;-47
2022/01/25 08:31:34;;;;;;;73.13;43.70;;;3.60;99.90;;;;;;5004931;28;20049;-47
2022/01/25 08:34:00;;;;;;;77.38;44.45;;;3.60;99.90;;;;;;5005152;28;20045;-47
2022/01/25 08:36:27;;;;;;;75.07;44.28;;;3.60;99.90;;;;;;5003720;28;20060;-47
2022/01/25 08:38:53;;;;;;;77.95;45.47;;;3.60;99.90;;;;;;5005696;28;20054;-49
2022/01/25 08:41:19;;;;;;;77.93;42.65;;;3.60;99.90;;;;;;5003488;28;20108;-50
2022/01/25 08:43:46;;;;;;;78.30;44.13;;;3.60;99.90;;;;;;5006519;28;20057;-49
2022/01/25 08:46:12;;;;;;;73.55;43.03;;;3.60;99.90;;;;;;5008708;28;20038;-47
2022/01/25 08:48:38;;;;;;;77.90;44.65;;;3.60;99.90;;;;;;5005762;28;20050;-50
2022/01/25 08:51:06;;;;;;;75.65;43.95;;;3.60;99.90;;;;;;5003917;28;20045;-48
2022/01/25 08:53:33;;;;;;;73.13;43.13;;;3.60;99.90;;;;;;5004563;28;20271;-46
2022/01/25 08:55:58;;;;;;;72.10;43.75;;;3.60;99.90;;;;;;5010817;28;20050;-49
2022/01/25 08:58:26;;;;;;;79.38;46.72;;;3.60;99.90;;;;;;5003173;28;20468;-47
2022/01/25 09:00:52;;;;;;;76.53;44.40;;;3.70;99.90;;;;;;5004490;28;20153;-49
2022/01/25 09:03:18;;;;;;;77.22;43.88;;;3.70;99.90;;;;;;5004393;28;20050;-47
2022/01/25 09:05:43;;;;;;;80.75;47.63;;;3.70;99.90;;;;;;5002912;28;20238;-46
2022/01/25 09:08:15;;;;;;;79.78;45.78;;;3.70;99.90;;;;;;5000495;28;20538;-46
2022/01/25 09:10:41;;;;;;;76.50;43.92;;;3.70;99.90;;;;;;4995222;28;20188;-47
2022/01/25 09:13:07;;;;;;;78.72;44.67;;;3.70;99.90;;;;;;5005587;28;20046;-46
2022/01/25 09:15:33;;;;;;;77.15;43.83;;;3.70;99.90;;;;;;4995720;28;20049;-49
2022/01/25 09:17:59;;;;;;;89.70;47.03;;;3.70;99.90;;;;;;4994562;28;20462;-47
2022/01/25 09:20:25;;;;;;;75.90;43.55;;;3.70;99.90;;;;;;5012378;28;20137;-47
2022/01/25 09:22:50;;;;;;;80.13;45.63;;;3.70;99.90;;;;;;5003571;28;20498;-46
2022/01/25 09:25:16;;;;;;;72.32;43.25;;;3.70;99.90;;;;;;5000480;28;20054;-47
2022/01/25 09:27:43;;;;;;;76.82;42.90;;;3.70;99.90;;;;;;4986267;28;20064;-47
2022/01/25 09:30:09;;;;;;;75.57;42.40;;;3.70;99.90;;;;;;5003343;28;20058;-46
2022/01/25 09:32:36;;;;;;;77.40;43.40;;;3.80;99.90;;;;;;5001725;28;20455;-47
2022/01/25 09:35:03;;;;;;;73.07;41.75;;;3.70;99.90;;;;;;5003387;28;20042;-47
2022/01/25 09:37:28;;;;;;;79.53;44.85;;;3.70;99.90;;;;;;5004241;28;20053;-46
2022/01/25 09:39:54;;;;;;;75.15;43.20;;;3.70;99.90;;;;;;4993473;28;20049;-49
2022/01/25 09:42:21;;;;;;;77.40;44.38;;;3.70;99.90;;;;;;5004149;28;20054;-46
2022/01/25 09:44:48;;;;;;;76.10;42.67;;;3.70;99.90;;;;;;5002420;28;20050;-48
2022/01/25 09:47:14;;;;;;;72.43;42.63;;;3.70;99.90;;;;;;4994208;28;20053;-46
2022/01/25 09:49:40;;;;;;;79.07;43.45;;;3.70;99.90;;;;;;5003949;28;20095;-47
2022/01/25 09:52:07;;;;;;;78.72;45.60;;;3.70;99.90;;;;;;5004656;28;20774;-48
2022/01/25 09:54:35;;;;;;;78.55;42.92;;;3.80;99.90;;;;;;5005906;28;20049;-50
2022/01/25 09:57:02;;;;;;;78.25;45.17;;;3.70;99.90;;;;;;5003418;28;20049;-47
2022/01/25 09:59:28;;;;;;;77.60;44.70;;;3.70;99.90;;;;;;5003850;28;20124;-47
2022/01/25 10:01:55;;;;;;;78.03;43.80;;;3.80;99.90;;;;;;5010205;28;20050;-46
2022/01/25 10:04:39;;;;;;;78.25;43.78;;;3.80;99.90;;;;;;5001721;28;20144;-47
2022/01/25 10:07:05;;;;;;;74.95;40.88;;;3.80;99.90;;;;;;4977727;28;20108;-46
2022/01/25 10:09:32;;;;;;;73.10;42.25;;;3.80;99.90;;;;;;4995771;28;20065;-46
2022/01/25 10:12:19;;;;;;;80.45;44.13;;;3.80;99.90;;;;;;5001584;28;20587;-48
2022/01/25 10:15:14;;;;;;;78.10;44.05;;;3.80;99.90;;;;;;5002203;28;20046;-46
2022/01/25 10:17:42;;;;;;;77.95;42.10;;;3.80;99.90;;;;;;4935893;28;20058;-47
2022/01/25 10:20:25;;;;;;;74.15;43.28;;;3.80;99.90;;;;;;4950843;28;20117;-47
2022/01/25 10:22:51;;;;;;;82.85;45.33;;;3.80;99.90;;;;;;4941463;29;20632;-46
2022/01/25 10:25:39;;;;;;;76.55;43.78;;;3.80;99.90;;;;;;4941616;29;20239;-46
2022/01/25 10:28:13;;;;;;;81.80;44.53;;;3.90;99.90;;;;;;4941578;29;20066;-47
2022/01/25 10:30:49;;;;;;;75.20;43.25;;;3.90;99.90;;;;;;4941370;29;20391;-46
2022/01/25 10:33:39;;;;;;;79.88;45.28;;;3.90;99.90;;;;;;4931220;29;20070;-47
2022/01/25 10:36:23;;;;;;;76.70;42.03;;;3.90;99.90;;;;;;4940558;29;20535;-47
2022/01/25 10:38:52;;;;;;;81.68;46.00;;;3.90;99.90;;;;;;4946685;28;20340;-46
2022/01/25 10:41:24;;;;;;;79.57;44.42;;;3.90;99.90;;;;;;4941926;29;20114;-47
2022/01/25 10:43:52;;;;;;;77.82;42.05;;;3.90;99.90;;;;;;4925149;29;20620;-48
2022/01/25 10:46:28;;;;;;;77.03;44.08;;;4.00;99.90;;;;;;4940821;29;20665;-47
2022/01/25 10:48:57;;;;;;;77.78;44.10;;;4.00;99.90;;;;;;4924180;29;20061;-46
2022/01/25 10:51:46;;;;;;;79.28;43.95;;;4.00;99.90;;;;;;4925168;29;20165;-47
2022/01/25 10:54:14;;;;;;;77.07;43.22;;;4.00;99.90;;;;;;4970156;28;20062;-47
2022/01/25 10:56:40;;;;;;;75.05;42.63;;;4.00;99.90;;;;;;4991076;28;20515;-50
2022/01/25 10:59:08;;;;;;;77.47;43.47;;;4.00;99.90;;;;;;5001679;28;20045;-47
2022/01/25 11:01:55;;;;;;;80.55;45.35;;;4.00;99.90;;;;;;5001804;28;20779;-47
2022/01/25 11:04:31;;;;;;;79.13;44.70;;;4.00;99.90;;;;;;4996423;28;20038;-49
2022/01/25 11:07:06;;;;;;;84.40;46.42;;;4.00;99.90;;;;;;4997236;28;20062;-46
2022/01/25 11:09:38;;;;;;;77.68;42.85;;;4.00;99.90;;;;;;4996288;28;20046;-46
2022/01/25 11:12:06;;;;;;;76.25;42.63;;;4.00;99.90;;;;;;5004984;28;20217;-48
2022/01/25 11:14:53;;;;;;;85.50;46.40;;;4.00;99.90;;;;;;5000039;28;20571;-46
2022/01/25 11:17:24;;;;;;;78.97;43.70;;;4.00;99.90;;;;;;4998292;28;20053;-48
2022/01/25 11:19:49;;;;;;;76.07;44.65;;;4.00;99.90;;;;;;5007740;28;20084;-48
2022/01/25 11:22:22;;;;;;;79.85;45.53;;;4.00;99.90;;;;;;5002208;28;20526;-47
2022/01/25 11:24:50;;;;;;;76.43;44.77;;;4.00;99.90;;;;;;4998086;28;20061;-48
2022/01/25 11:27:18;;;;;;;78.32;44.58;;;4.00;99.90;;;;;;4999108;28;20141;-46
2022/01/25 11:29:45;;;;;;;83.18;46.63;;;4.00;99.90;;;;;;5000910;28;20057;-48
2022/01/25 11:32:14;;;;;;;79.40;45.35;;;4.00;99.90;;;;;;5001810;28;20088;-46
2022/01/25 11:34:43;;;;;;;76.97;44.30;;;4.00;99.90;;;;;;4998811;28;20459;-47
2022/01/25 11:37:09;;;;;;;76.70;43.85;;;4.00;99.90;;;;;;5000504;28;20054;-47
2022/01/25 11:39:39;;;;;;;76.00;43.28;;;4.00;99.90;;;;;;4988887;28;20590;-47
2022/01/25 11:42:12;;;;;;;85.22;47.33;;;4.10;99.90;;;;;;5001782;28;20558;-46
2022/01/25 11:44:56;;;;;;;75.30;41.83;;;4.10;99.90;;;;;;5001239;28;20033;-47
2022/01/25 11:47:33;;;;;;;81.35;44.90;;;4.10;99.90;;;;;;4999629;28;20443;-47
2022/01/25 11:50:11;;;;;;;74.55;41.85;;;4.10;99.90;;;;;;5001842;28;20050;-47
2022/01/25 11:52:49;;;;;;;73.60;42.13;;;4.20;99.90;;;;;;5000018;28;20132;-47
2022/01/25 11:55:35;;;;;;;80.75;44.50;;;4.20;99.90;;;;;;4999945;28;20042;-47
2022/01/25 11:58:13;;;;;;;73.15;43.30;;;4.10;99.90;;;;;;4964315;28;20058;-46
2022/01/25 12:01:00;;;;;;;75.47;44.20;;;4.20;99.90;;;;;;5001412;28;20056;-46
2022/01/25 12:03:40;;;;;;;74.07;42.60;;;4.20;99.90;;;;;;5007876;28;20095;-47
2022/01/25 12:06:09;;;;;;;76.85;43.72;;;4.20;99.90;;;;;;5005051;28;20467;-47
2022/01/25 12:08:50;;;;;;;74.28;41.88;;;4.20;99.90;;;;;;5004023;28;20077;-47
2022/01/25 12:11:46;;;;;;;74.72;42.97;;;4.20;99.90;;;;;;5004891;28;20945;-47
2022/01/25 12:14:41;;;;;;;81.43;44.88;;;4.20;99.90;;;;;;5007206;28;20177;-47
2022/01/25 12:17:07;;;;;;;79.85;45.00;;;4.30;99.90;;;;;;5009985;28;20049;-53
2022/01/25 12:19:41;;;;;;;74.70;43.42;;;4.30;99.90;;;;;;5015855;28;20054;-49
2022/01/25 12:22:26;;;;;;;77.55;44.47;;;4.30;99.90;;;;;;4995665;28;20049;-49
2022/01/25 12:27:43;;;;;;;79.72;45.25;;;4.30;99.90;;;;;;5003197;28;20466;-46
2022/01/25 12:30:12;;;;;;;78.50;43.00;;;4.30;99.90;;;;;;5004886;28;20053;-47
2022/01/25 12:33:02;;;;;;;78.70;45.03;;;4.20;99.90;;;;;;5001319;28;20411;-47
2022/01/25 12:35:48;;;;;;;77.60;42.83;;;4.20;99.90;;;;;;5004839;28;20431;-47
2022/01/25 12:38:19;;;;;;;74.50;42.85;;;4.20;99.90;;;;;;5002409;28;20061;-47
2022/01/25 12:41:07;;;;;;;76.40;44.72;;;4.20;99.90;;;;;;5003979;28;20404;-48
2022/01/25 12:43:43;;;;;;;75.97;43.03;;;4.20;99.90;;;;;;4994551;28;20045;-46
2022/01/25 12:46:12;;;;;;;78.43;42.78;;;4.20;99.90;;;;;;5003634;28;20062;-49
2022/01/25 12:48:46;;;;;;;75.18;42.22;;;4.20;99.90;;;;;;5004001;28;20045;-46
2022/01/25 12:51:13;;;;;;;;;;;4.20;99.90;;;;;;5004612;28;20067;-48
2022/01/25 12:53:42;;;;;;;76.72;44.22;;;4.20;99.90;;;;;;5004235;28;20415;-46
2022/01/25 12:56:18;;;;;;;72.65;42.53;;;4.20;99.90;;;;;;5004646;28;20501;-47
2022/01/25 12:58:47;;;;;;;80.75;44.22;;;4.20;99.90;;;;;;5003463;28;20133;-46
2022/01/25 13:01:18;;;;;;;77.15;43.35;;;4.20;99.90;;;;;;5009790;28;20547;-48
2022/01/25 13:04:00;;;;;;;75.45;42.30;;;4.20;99.90;;;;;;5003747;28;20382;-46
2022/01/25 13:06:30;;;;;;;81.85;44.63;;;4.20;99.90;;;;;;5002712;28;20054;-47
2022/01/25 13:09:06;;;;;;;81.65;45.20;;;4.20;99.90;;;;;;4997753;28;20579;-46
2022/01/25 13:17:01;;;;;;;75.90;42.15;;;4.20;99.90;;;;;;5002595;28;20518;-47
2022/01/25 13:19:36;;;;;;;75.40;42.50;;;4.20;99.90;;;;;;5007705;28;20492;-49
2022/01/25 13:22:08;;;;;;;80.72;43.85;;;4.20;99.90;;;;;;5004076;28;20052;-47
2022/01/25 13:24:55;;;;;;;76.22;43.55;;;4.20;99.90;;;;;;4998844;28;20062;-49
2022/01/25 13:27:21;;;;;;;81.18;43.90;;;4.20;99.90;;;;;;4998140;28;20594;-49
2022/01/25 13:32:41;;;;;;;81.65;44.45;;;4.20;99.90;;;;;;5000793;28;20111;-47
2022/01/25 13:35:29;;;;;;;82.45;44.13;;;4.20;99.90;;;;;;5001907;28;20058;-46
2022/01/25 13:38:18;;;;;;;76.60;42.70;;;4.10;99.90;;;;;;4996164;28;20054;-46
2022/01/25 13:46:23;;;;;;;77.45;43.53;;;4.10;99.90;;;;;;5003495;28;20111;-46
2022/01/25 13:48:56;;;;;;;77.03;42.60;;;4.20;99.90;;;;;;5001966;28;20089;-47
2022/01/25 13:51:24;;;;;;;79.93;43.38;;;4.20;99.90;;;;;;4994476;28;20119;-46
2022/01/25 13:53:56;;;;;;;75.40;43.00;;;4.10;99.90;;;;;;5003889;28;20053;-46
2022/01/25 13:56:27;;;;;;;80.03;44.08;;;4.10;99.90;;;;;;5003388;28;20404;-47
2022/01/25 13:58:53;;;;;;;72.57;41.53;;;4.20;99.90;;;;;;5003583;28;20446;-46
2022/01/25 14:01:21;;;;;;;77.72;43.30;;;4.20;99.90;;;;;;5010062;28;20056;-47
2022/01/25 14:04:19;;;;;;;78.70;44.05;;;4.10;99.90;;;;;;5002326;28;20129;-46
2022/01/25 14:06:52;;;;;;;86.25;46.47;;;4.10;99.90;;;;;;4998225;28;20058;-47
2022/01/25 14:09:25;;;;;;;79.07;44.58;;;4.10;99.90;;;;;;5003709;28;20096;-47
2022/01/25 14:25:41;;;;;;;87.07;46.03;;;4.10;99.90;;;;;;5001045;28;20385;-49
2022/01/25 14:28:15;;;;;;;81.70;43.50;;;4.10;99.90;;;;;;4990461;28;20543;-47
2022/01/25 14:30:42;;;;;;;78.90;42.80;;;4.10;99.90;;;;;;5003839;28;20056;-47
2022/01/25 14:33:12;;;;;;;83.30;48.80;;;4.10;99.90;;;;;;5002554;28;20042;-47
2022/01/25 14:35:59;;;;;;;89.50;44.97;;;4.10;99.90;;;;;;5006610;28;20184;-47
2022/01/25 14:38:29;;;;;;;83.60;45.70;;;4.10;99.90;;;;;;5003399;28;20937;-52
2022/01/25 14:41:11;;;;;;;85.50;46.60;;;4.10;99.90;;;;;;5003333;28;20060;-47
2022/01/25 14:43:47;;;;;;;83.72;45.33;;;4.10;99.90;;;;;;5001958;28;20895;-48
2022/01/25 14:46:39;;;;;;;79.45;43.58;;;4.00;99.90;;;;;;5002280;28;20050;-47
2022/01/25 14:49:22;;;;;;;82.15;43.72;;;4.00;99.90;;;;;;4979177;28;20164;-47
2022/01/25 14:51:55;;;;;;;89.63;47.75;;;4.10;99.90;;;;;;5002524;28;20056;-46
2022/01/25 14:54:41;;;;;;;77.78;42.67;;;4.00;99.90;;;;;;5001813;28;20057;-46
2022/01/25 14:57:12;;;;;;;81.57;43.03;;;4.00;99.90;;;;;;4998385;28;20060;-46
2022/01/25 14:59:49;;;;;;;94.75;52.45;;;4.00;99.90;;;;;;5000097;28;20058;-46
2022/01/25 15:02:18;;;;;;;87.00;46.60;;;4.00;99.90;;;;;;4997643;28;20056;-46
2022/01/25 15:04:51;;;;;;;86.65;43.97;;;4.00;99.90;;;;;;4998044;28;20065;-47
2022/01/25 15:07:20;;;;;;;87.93;46.45;;;4.00;99.90;;;;;;5003645;28;20092;-46
2022/01/25 15:09:53;;;;;;;85.75;44.25;;;4.00;99.90;;;;;;5002820;28;20064;-47